sensor_id;sensor_type;location;lat;lon;timestamp;temperature;humidity
25188;DHT22;13141;50.414;8.050;2022-09-27T00:01:04;11.60;99.90
25188;DHT22;13141;50.414;8.050;2022-09-27T00:03:31;11.60;99.90
25188;DHT22;13141;50.414;8.050;2022-09-27T00:06:14;11.60;99.90
25188;DHT22;13141;50.414;8.050;2022-09-27T00:08:41;11.50;99.90
25188;DHT22;13141;50.414;8.050;2022-09-27T00:11:14;11.50;99.90
25188;DHT22;13141;50.414;8.050;2022-09-27T00:13:41;11.50;99.90
25188;DHT22;13141;50.414;8.050;2022-09-27T00:16:08;11.50;99.90
25188;DHT22;13141;50.414;8.050;2022-09-27T00:18:34;11.50;99.90
25188;DHT22;13141;50.414;8.050;2022-09-27T00:21:12;11.60;99.90
25188;DHT22;13141;50.414;8.050;2022-09-27T00:23:39;11.60;99.90
25188;DHT22;13141;50.414;8.050;2022-09-27T00:26:06;11.50;99.90
25188;DHT22;13141;50.414;8.050;2022-09-27T00:28:33;11.50;99.90
25188;DHT22;13141;50.414;8.050;2022-09-27T00:30:59;11.50;99.90
25188;DHT22;13141;50.414;8.050;2022-09-27T00:33:26;11.50;99.90
25188;DHT22;13141;50.414;8.050;2022-09-27T00:35:51;11.50;99.90
25188;DHT22;13141;50.414;8.050;2022-09-27T00:38:17;11.50;99.90
25188;DHT22;13141;50.414;8.050;2022-09-27T00:40:43;11.50;99.90
25188;DHT22;13141;50.414;8.050;2022-09-27T00:43:43;11.50;99.90
25188;DHT22;13141;50.414;8.050;2022-09-27T00:46:09;11.50;99.90
25188;DHT22;13141;50.414;8.050;2022-09-27T00:48:37;11.50;99.90
25188;DHT22;13141;50.414;8.050;2022-09-27T00:51:04;11.50;99.90
25188;DHT22;13141;50.414;8.050;2022-09-27T00:53:44;11.50;99.90
25188;DHT22;13141;50.414;8.050;2022-09-27T00:56:26;11.50;99.90
25188;DHT22;13141;50.414;8.050;2022-09-27T00:59:06;11.50;99.90
25188;DHT22;13141;50.414;8.050;2022-09-27T01:01:32;11.50;99.90
25188;DHT22;13141;50.414;8.050;2022-09-27T01:04:17;11.40;99.90
25188;DHT22;13141;50.414;8.050;2022-09-27T01:06:47;11.50;99.90
25188;DHT22;13141;50.414;8.050;2022-09-27T01:09:13;11.50;99.90
25188;DHT22;13141;50.414;8.050;2022-09-27T01:12:05;11.50;99.90
25188;DHT22;13141;50.414;8.050;2022-09-27T01:34:06;11.70;99.90
25188;DHT22;13141;50.414;8.050;2022-09-27T01:40:10;11.70;99.90
25188;DHT22;13141;50.414;8.050;2022-09-27T01:42:59;11.70;99.90
25188;DHT22;13141;50.414;8.050;2022-09-27T01:45:37;11.70;99.90
25188;DHT22;13141;50.414;8.050;2022-09-27T01:48:23;11.70;99.90
25188;DHT22;13141;50.414;8.050;2022-09-27T01:50:59;11.70;99.90
25188;DHT22;13141;50.414;8.050;2022-09-27T01:53:36;11.70;99.90
25188;DHT22;13141;50.414;8.050;2022-09-27T01:56:05;11.70;99.90
25188;DHT22;13141;50.414;8.050;2022-09-27T01:58:41;11.70;99.90
25188;DHT22;13141;50.414;8.050;2022-09-27T02:01:08;11.70;99.90
25188;DHT22;13141;50.414;8.050;2022-09-27T02:03:40;11.60;99.90
25188;DHT22;13141;50.414;8.050;2022-09-27T02:06:14;11.50;99.90
25188;DHT22;13141;50.414;8.050;2022-09-27T02:08:59;11.50;99.90
25188;DHT22;13141;50.414;8.050;2022-09-27T02:11:26;11.50;99.90
25188;DHT22;13141;50.414;8.050;2022-09-27T02:13:53;11.60;99.90
25188;DHT22;13141;50.414;8.050;2022-09-27T02:16:54;11.60;99.90
25188;DHT22;13141;50.414;8.050;2022-09-27T02:19:39;11.60;99.90
25188;DHT22;13141;50.414;8.050;2022-09-27T02:22:34;11.60;99.90
25188;DHT22;13141;50.414;8.050;2022-09-27T02:27:33;11.50;99.90
25188;DHT22;13141;50.414;8.050;2022-09-27T02:30:11;11.50;99.90
25188;DHT22;13141;50.414;8.050;2022-09-27T02:32:38;11.50;99.90
25188;DHT22;13141;50.414;8.050;2022-09-27T02:35:15;11.50;99.90
25188;DHT22;13141;50.414;8.050;2022-09-27T02:37:41;11.50;99.90
25188;DHT22;13141;50.414;8.050;2022-09-27T02:40:07;11.50;99.90
25188;DHT22;13141;50.414;8.050;2022-09-27T02:42:34;11.50;99.90
25188;DHT22;13141;50.414;8.050;2022-09-27T02:45:00;11.50;99.90
25188;DHT22;13141;50.414;8.050;2022-09-27T02:47:48;11.40;99.90
25188;DHT22;13141;50.414;8.050;2022-09-27T03:01:07;11.40;99.90
25188;DHT22;13141;50.414;8.050;2022-09-27T03:03:42;11.40;99.90
25188;DHT22;13141;50.414;8.050;2022-09-27T03:06:12;11.40;99.90
25188;DHT22;13141;50.414;8.050;2022-09-27T03:08:39;11.40;99.90
25188;DHT22;13141;50.414;8.050;2022-09-27T03:11:07;11.40;99.90
25188;DHT22;13141;50.414;8.050;2022-09-27T03:13:33;11.40;99.90
25188;DHT22;13141;50.414;8.050;2022-09-27T03:15:59;11.40;99.90
25188;DHT22;13141;50.414;8.050;2022-09-27T03:18:25;11.40;99.90
25188;DHT22;13141;50.414;8.050;2022-09-27T03:20:52;11.40;99.90
25188;DHT22;13141;50.414;8.050;2022-09-27T03:23:18;11.40;99.90
25188;DHT22;13141;50.414;8.050;2022-09-27T03:25:44;11.30;99.90
25188;DHT22;13141;50.414;8.050;2022-09-27T03:28:09;11.40;99.90
25188;DHT22;13141;50.414;8.050;2022-09-27T03:30:35;11.50;99.90
25188;DHT22;13141;50.414;8.050;2022-09-27T03:33:00;11.30;99.90
25188;DHT22;13141;50.414;8.050;2022-09-27T03:35:26;11.50;99.90
25188;DHT22;13141;50.414;8.050;2022-09-27T03:37:51;11.30;99.90
25188;DHT22;13141;50.414;8.050;2022-09-27T03:40:17;11.30;99.90
25188;DHT22;13141;50.414;8.050;2022-09-27T03:42:42;11.20;99.90
25188;DHT22;13141;50.414;8.050;2022-09-27T03:45:08;11.20;99.90
25188;DHT22;13141;50.414;8.050;2022-09-27T03:47:34;11.20;99.90
25188;DHT22;13141;50.414;8.050;2022-09-27T03:50:04;11.20;99.90
25188;DHT22;13141;50.414;8.050;2022-09-27T03:52:29;11.20;99.90
25188;DHT22;13141;50.414;8.050;2022-09-27T03:54:55;11.20;99.90
25188;DHT22;13141;50.414;8.050;2022-09-27T03:57:21;11.20;99.90
25188;DHT22;13141;50.414;8.050;2022-09-27T03:59:46;11.20;99.90
25188;DHT22;13141;50.414;8.050;2022-09-27T04:02:12;11.20;99.90
25188;DHT22;13141;50.414;8.050;2022-09-27T04:04:38;11.20;99.90
25188;DHT22;13141;50.414;8.050;2022-09-27T04:07:03;11.20;99.90
25188;DHT22;13141;50.414;8.050;2022-09-27T04:09:29;11.10;99.90
25188;DHT22;13141;50.414;8.050;2022-09-27T04:11:54;11.10;99.90
25188;DHT22;13141;50.414;8.050;2022-09-27T04:14:20;11.10;99.90
25188;DHT22;13141;50.414;8.050;2022-09-27T04:16:45;11.10;99.90
25188;DHT22;13141;50.414;8.050;2022-09-27T04:19:11;11.10;99.90
25188;DHT22;13141;50.414;8.050;2022-09-27T04:21:36;11.00;99.90
25188;DHT22;13141;50.414;8.050;2022-09-27T04:24:02;11.20;99.90
25188;DHT22;13141;50.414;8.050;2022-09-27T04:26:29;11.00;99.90
25188;DHT22;13141;50.414;8.050;2022-09-27T04:28:55;11.00;99.90
25188;DHT22;13141;50.414;8.050;2022-09-27T04:31:21;11.00;99.90
25188;DHT22;13141;50.414;8.050;2022-09-27T04:33:46;11.00;99.90
25188;DHT22;13141;50.414;8.050;2022-09-27T04:36:19;11.00;99.90
25188;DHT22;13141;50.414;8.050;2022-09-27T04:38:56;11.00;99.90
25188;DHT22;13141;50.414;8.050;2022-09-27T04:41:23;11.10;99.90
25188;DHT22;13141;50.414;8.050;2022-09-27T04:43:52;11.10;99.90
25188;DHT22;13141;50.414;8.050;2022-09-27T04:46:18;11.10;99.90
25188;DHT22;13141;50.414;8.050;2022-09-27T04:48:46;11.10;99.90
25188;DHT22;13141;50.414;8.050;2022-09-27T04:51:12;11.10;99.90
25188;DHT22;13141;50.414;8.050;2022-09-27T04:53:38;11.00;99.90
25188;DHT22;13141;50.414;8.050;2022-09-27T04:56:04;11.00;99.90
25188;DHT22;13141;50.414;8.050;2022-09-27T04:58:31;11.00;99.90
25188;DHT22;13141;50.414;8.050;2022-09-27T05:00:59;11.00;99.90
25188;DHT22;13141;50.414;8.050;2022-09-27T05:03:26;11.30;99.90
25188;DHT22;13141;50.414;8.050;2022-09-27T05:05:52;11.00;99.90
25188;DHT22;13141;50.414;8.050;2022-09-27T05:08:18;10.90;99.90
25188;DHT22;13141;50.414;8.050;2022-09-27T05:10:45;10.90;99.90
25188;DHT22;13141;50.414;8.050;2022-09-27T05:13:11;10.90;99.90
25188;DHT22;13141;50.414;8.050;2022-09-27T05:15:37;10.90;99.90
25188;DHT22;13141;50.414;8.050;2022-09-27T05:18:04;11.00;99.90
25188;DHT22;13141;50.414;8.050;2022-09-27T05:20:31;10.90;99.90
25188;DHT22;13141;50.414;8.050;2022-09-27T05:22:57;11.00;99.90
25188;DHT22;13141;50.414;8.050;2022-09-27T05:25:22;10.90;99.90
25188;DHT22;13141;50.414;8.050;2022-09-27T05:27:49;10.90;99.90
25188;DHT22;13141;50.414;8.050;2022-09-27T05:30:15;10.90;99.90
25188;DHT22;13141;50.414;8.050;2022-09-27T05:32:45;10.90;99.90
25188;DHT22;13141;50.414;8.050;2022-09-27T05:35:15;10.90;99.90
25188;DHT22;13141;50.414;8.050;2022-09-27T05:37:42;10.80;99.90
25188;DHT22;13141;50.414;8.050;2022-09-27T05:40:08;11.00;99.90
25188;DHT22;13141;50.414;8.050;2022-09-27T05:42:33;10.90;99.90
25188;DHT22;13141;50.414;8.050;2022-09-27T05:45:03;10.90;99.90
25188;DHT22;13141;50.414;8.050;2022-09-27T05:47:29;11.00;99.90
25188;DHT22;13141;50.414;8.050;2022-09-27T05:49:54;10.90;99.90
25188;DHT22;13141;50.414;8.050;2022-09-27T05:52:20;10.90;99.90
25188;DHT22;13141;50.414;8.050;2022-09-27T05:54:46;10.90;99.90
25188;DHT22;13141;50.414;8.050;2022-09-27T05:57:11;11.00;99.90
25188;DHT22;13141;50.414;8.050;2022-09-27T05:59:37;11.00;99.90
25188;DHT22;13141;50.414;8.050;2022-09-27T06:02:02;10.90;99.90
25188;DHT22;13141;50.414;8.050;2022-09-27T06:04:28;11.00;99.90
25188;DHT22;13141;50.414;8.050;2022-09-27T06:06:53;11.10;99.90
25188;DHT22;13141;50.414;8.050;2022-09-27T06:09:19;10.90;99.90
25188;DHT22;13141;50.414;8.050;2022-09-27T06:11:44;10.90;99.90
25188;DHT22;13141;50.414;8.050;2022-09-27T06:14:13;10.90;99.90
25188;DHT22;13141;50.414;8.050;2022-09-27T06:16:39;10.90;99.90
25188;DHT22;13141;50.414;8.050;2022-09-27T06:19:05;10.90;99.90
25188;DHT22;13141;50.414;8.050;2022-09-27T06:21:30;10.80;99.90
25188;DHT22;13141;50.414;8.050;2022-09-27T06:23:57;10.90;99.90
25188;DHT22;13141;50.414;8.050;2022-09-27T06:26:24;10.90;99.90
25188;DHT22;13141;50.414;8.050;2022-09-27T06:28:51;10.90;99.90
25188;DHT22;13141;50.414;8.050;2022-09-27T06:31:17;10.90;99.90
25188;DHT22;13141;50.414;8.050;2022-09-27T06:33:42;11.00;99.90
25188;DHT22;13141;50.414;8.050;2022-09-27T06:36:08;10.90;99.90
25188;DHT22;13141;50.414;8.050;2022-09-27T06:38:34;10.90;99.90
25188;DHT22;13141;50.414;8.050;2022-09-27T06:41:01;10.90;99.90
25188;DHT22;13141;50.414;8.050;2022-09-27T06:43:27;11.20;99.90
25188;DHT22;13141;50.414;8.050;2022-09-27T06:45:53;11.00;99.90
25188;DHT22;13141;50.414;8.050;2022-09-27T06:48:19;11.00;99.90
25188;DHT22;13141;50.414;8.050;2022-09-27T06:50:45;11.00;99.90
25188;DHT22;13141;50.414;8.050;2022-09-27T06:53:14;11.00;99.90
25188;DHT22;13141;50.414;8.050;2022-09-27T06:55:40;11.10;99.90
25188;DHT22;13141;50.414;8.050;2022-09-27T06:58:08;11.10;99.90
25188;DHT22;13141;50.414;8.050;2022-09-27T07:00:53;11.10;99.90
25188;DHT22;13141;50.414;8.050;2022-09-27T07:03:20;11.10;99.90
25188;DHT22;13141;50.414;8.050;2022-09-27T07:05:58;11.10;99.90
25188;DHT22;13141;50.414;8.050;2022-09-27T07:08:25;11.20;99.90
25188;DHT22;13141;50.414;8.050;2022-09-27T07:10:53;11.20;99.90
25188;DHT22;13141;50.414;8.050;2022-09-27T07:13:20;11.20;99.90
25188;DHT22;13141;50.414;8.050;2022-09-27T07:15:45;11.40;99.90
25188;DHT22;13141;50.414;8.050;2022-09-27T07:18:11;11.30;99.90
25188;DHT22;13141;50.414;8.050;2022-09-27T07:20:37;11.50;99.90
25188;DHT22;13141;50.414;8.050;2022-09-27T07:23:06;11.50;99.90
25188;DHT22;13141;50.414;8.050;2022-09-27T07:25:33;11.30;99.90
25188;DHT22;13141;50.414;8.050;2022-09-27T07:28:04;11.40;99.90
25188;DHT22;13141;50.414;8.050;2022-09-27T07:30:31;11.40;99.90
25188;DHT22;13141;50.414;8.050;2022-09-27T07:33:02;11.30;99.90
25188;DHT22;13141;50.414;8.050;2022-09-27T07:35:28;11.40;99.90
25188;DHT22;13141;50.414;8.050;2022-09-27T07:37:55;11.40;99.90
25188;DHT22;13141;50.414;8.050;2022-09-27T07:40:21;11.30;99.90
25188;DHT22;13141;50.414;8.050;2022-09-27T07:42:46;11.40;99.90
25188;DHT22;13141;50.414;8.050;2022-09-27T07:45:12;11.30;99.90
25188;DHT22;13141;50.414;8.050;2022-09-27T07:47:39;11.40;99.90
25188;DHT22;13141;50.414;8.050;2022-09-27T07:50:07;11.40;99.90
25188;DHT22;13141;50.414;8.050;2022-09-27T07:52:42;11.40;99.90
25188;DHT22;13141;50.414;8.050;2022-09-27T07:55:09;11.50;99.90
25188;DHT22;13141;50.414;8.050;2022-09-27T07:57:36;11.50;99.90
25188;DHT22;13141;50.414;8.050;2022-09-27T08:00:08;11.80;99.90
25188;DHT22;13141;50.414;8.050;2022-09-27T08:02:35;11.50;99.90
25188;DHT22;13141;50.414;8.050;2022-09-27T08:05:01;11.50;99.90
25188;DHT22;13141;50.414;8.050;2022-09-27T08:07:27;11.40;99.90
25188;DHT22;13141;50.414;8.050;2022-09-27T08:09:53;11.50;99.90
25188;DHT22;13141;50.414;8.050;2022-09-27T08:12:19;11.60;99.90
25188;DHT22;13141;50.414;8.050;2022-09-27T08:14:47;11.80;99.90
25188;DHT22;13141;50.414;8.050;2022-09-27T08:17:13;12.00;99.90
25188;DHT22;13141;50.414;8.050;2022-09-27T08:19:39;12.40;99.90
25188;DHT22;13141;50.414;8.050;2022-09-27T08:22:06;12.80;99.90
25188;DHT22;13141;50.414;8.050;2022-09-27T08:24:32;13.10;99.90
25188;DHT22;13141;50.414;8.050;2022-09-27T08:26:59;13.00;99.90
25188;DHT22;13141;50.414;8.050;2022-09-27T08:29:24;12.90;99.90
25188;DHT22;13141;50.414;8.050;2022-09-27T08:31:51;13.10;99.90
25188;DHT22;13141;50.414;8.050;2022-09-27T08:34:18;13.00;99.90
25188;DHT22;13141;50.414;8.050;2022-09-27T08:36:44;12.90;99.90
25188;DHT22;13141;50.414;8.050;2022-09-27T08:39:09;12.90;99.90
25188;DHT22;13141;50.414;8.050;2022-09-27T08:41:54;13.00;99.90
25188;DHT22;13141;50.414;8.050;2022-09-27T08:44:40;13.00;99.90
25188;DHT22;13141;50.414;8.050;2022-09-27T08:49:48;13.00;99.90
25188;DHT22;13141;50.414;8.050;2022-09-27T08:52:22;13.00;99.90
25188;DHT22;13141;50.414;8.050;2022-09-27T08:54:52;13.00;99.90
25188;DHT22;13141;50.414;8.050;2022-09-27T08:57:20;12.90;99.90
25188;DHT22;13141;50.414;8.050;2022-09-27T09:02:21;12.80;99.90
25188;DHT22;13141;50.414;8.050;2022-09-27T09:04:52;12.90;99.90
25188;DHT22;13141;50.414;8.050;2022-09-27T09:33:39;13.30;99.90
25188;DHT22;13141;50.414;8.050;2022-09-27T09:36:24;13.30;99.90
25188;DHT22;13141;50.414;8.050;2022-09-27T09:38:58;13.30;99.90
25188;DHT22;13141;50.414;8.050;2022-09-27T09:44:09;13.00;99.90
25188;DHT22;13141;50.414;8.050;2022-09-27T09:46:50;13.00;99.90
25188;DHT22;13141;50.414;8.050;2022-09-27T09:49:30;13.00;99.90
25188;DHT22;13141;50.414;8.050;2022-09-27T09:52:02;13.00;99.90
25188;DHT22;13141;50.414;8.050;2022-09-27T09:57:17;13.00;99.90
25188;DHT22;13141;50.414;8.050;2022-09-27T10:02:54;13.20;99.90
25188;DHT22;13141;50.414;8.050;2022-09-27T10:05:24;13.40;99.90
25188;DHT22;13141;50.414;8.050;2022-09-27T10:07:52;13.50;99.90
25188;DHT22;13141;50.414;8.050;2022-09-27T10:10:19;13.70;99.90
25188;DHT22;13141;50.414;8.050;2022-09-27T10:12:46;14.10;99.90
25188;DHT22;13141;50.414;8.050;2022-09-27T10:15:41;14.20;99.90
25188;DHT22;13141;50.414;8.050;2022-09-27T10:18:13;14.40;99.90
25188;DHT22;13141;50.414;8.050;2022-09-27T10:20:54;14.30;99.90
25188;DHT22;13141;50.414;8.050;2022-09-27T10:23:22;14.10;99.90
25188;DHT22;13141;50.414;8.050;2022-09-27T10:25:56;14.00;99.90
25188;DHT22;13141;50.414;8.050;2022-09-27T10:31:05;15.00;99.90
25188;DHT22;13141;50.414;8.050;2022-09-27T10:33:32;15.50;99.90
25188;DHT22;13141;50.414;8.050;2022-09-27T10:35:59;15.70;99.90
25188;DHT22;13141;50.414;8.050;2022-09-27T10:40:53;15.10;99.90
25188;DHT22;13141;50.414;8.050;2022-09-27T10:43:25;14.80;99.90
25188;DHT22;13141;50.414;8.050;2022-09-27T10:46:02;14.80;99.90
25188;DHT22;13141;50.414;8.050;2022-09-27T10:48:28;14.70;99.90
25188;DHT22;13141;50.414;8.050;2022-09-27T10:51:05;14.60;99.90
25188;DHT22;13141;50.414;8.050;2022-09-27T10:53:34;14.60;99.90
25188;DHT22;13141;50.414;8.050;2022-09-27T10:56:00;14.30;99.90
25188;DHT22;13141;50.414;8.050;2022-09-27T10:58:33;14.20;99.90
25188;DHT22;13141;50.414;8.050;2022-09-27T11:01:01;14.20;99.90
25188;DHT22;13141;50.414;8.050;2022-09-27T11:03:31;14.30;99.90
25188;DHT22;13141;50.414;8.050;2022-09-27T11:05:57;14.40;99.90
25188;DHT22;13141;50.414;8.050;2022-09-27T11:08:31;14.90;99.90
25188;DHT22;13141;50.414;8.050;2022-09-27T11:11:06;15.30;99.90
25188;DHT22;13141;50.414;8.050;2022-09-27T11:13:33;15.80;99.90
25188;DHT22;13141;50.414;8.050;2022-09-27T11:27:35;15.40;99.90
25188;DHT22;13141;50.414;8.050;2022-09-27T11:30:09;15.20;99.90
25188;DHT22;13141;50.414;8.050;2022-09-27T11:36:01;14.80;99.90
25188;DHT22;13141;50.414;8.050;2022-09-27T11:38:36;14.60;99.90
25188;DHT22;13141;50.414;8.050;2022-09-27T11:41:32;14.40;99.90
25188;DHT22;13141;50.414;8.050;2022-09-27T11:50:19;14.40;99.90
25188;DHT22;13141;50.414;8.050;2022-09-27T11:56:10;14.20;99.90
25188;DHT22;13141;50.414;8.050;2022-09-27T12:01:49;14.20;99.90
25188;DHT22;13141;50.414;8.050;2022-09-27T12:04:41;14.00;99.90
25188;DHT22;13141;50.414;8.050;2022-09-27T12:10:11;13.80;99.90
25188;DHT22;13141;50.414;8.050;2022-09-27T12:12:40;13.90;99.90
25188;DHT22;13141;50.414;8.050;2022-09-27T12:15:25;14.10;99.90
25188;DHT22;13141;50.414;8.050;2022-09-27T12:18:04;14.30;99.90
25188;DHT22;13141;50.414;8.050;2022-09-27T12:20:35;14.50;99.90
25188;DHT22;13141;50.414;8.050;2022-09-27T12:23:23;14.80;99.90
25188;DHT22;13141;50.414;8.050;2022-09-27T12:25:56;15.00;99.90
25188;DHT22;13141;50.414;8.050;2022-09-27T12:28:45;15.10;99.90
25188;DHT22;13141;50.414;8.050;2022-09-27T12:36:18;15.20;99.80
25188;DHT22;13141;50.414;8.050;2022-09-27T12:38:52;15.10;99.20
25188;DHT22;13141;50.414;8.050;2022-09-27T12:41:21;15.30;99.40
25188;DHT22;13141;50.414;8.050;2022-09-27T12:43:49;15.30;99.20
25188;DHT22;13141;50.414;8.050;2022-09-27T12:51:39;15.60;99.40
25188;DHT22;13141;50.414;8.050;2022-09-27T12:57:12;15.20;99.90
25188;DHT22;13141;50.414;8.050;2022-09-27T13:02:50;15.10;99.90
25188;DHT22;13141;50.414;8.050;2022-09-27T13:13:38;15.40;99.90
25188;DHT22;13141;50.414;8.050;2022-09-27T13:16:05;15.30;99.90
25188;DHT22;13141;50.414;8.050;2022-09-27T13:21:02;15.00;99.90
25188;DHT22;13141;50.414;8.050;2022-09-27T13:25:56;14.80;99.90
25188;DHT22;13141;50.414;8.050;2022-09-27T13:31:08;14.90;99.90
25188;DHT22;13141;50.414;8.050;2022-09-27T13:41:22;15.00;99.90
25188;DHT22;13141;50.414;8.050;2022-09-27T13:44:25;14.80;99.90
25188;DHT22;13141;50.414;8.050;2022-09-27T13:46:59;14.70;99.90
25188;DHT22;13141;50.414;8.050;2022-09-27T13:49:29;14.60;99.90
25188;DHT22;13141;50.414;8.050;2022-09-27T13:52:01;14.60;99.90
25188;DHT22;13141;50.414;8.050;2022-09-27T13:54:35;14.50;99.90
25188;DHT22;13141;50.414;8.050;2022-09-27T13:57:01;14.50;99.90
25188;DHT22;13141;50.414;8.050;2022-09-27T13:59:44;14.50;99.90
25188;DHT22;13141;50.414;8.050;2022-09-27T14:02:19;14.70;99.90
25188;DHT22;13141;50.414;8.050;2022-09-27T14:04:48;14.80;99.90
25188;DHT22;13141;50.414;8.050;2022-09-27T14:07:17;15.00;99.90
25188;DHT22;13141;50.414;8.050;2022-09-27T14:09:50;15.10;99.90
25188;DHT22;13141;50.414;8.050;2022-09-27T14:12:19;15.20;99.90
25188;DHT22;13141;50.414;8.050;2022-09-27T14:14:45;15.20;99.90
25188;DHT22;13141;50.414;8.050;2022-09-27T14:17:14;15.20;99.90
25188;DHT22;13141;50.414;8.050;2022-09-27T14:19:41;15.50;99.40
25188;DHT22;13141;50.414;8.050;2022-09-27T14:22:16;15.20;99.60
25188;DHT22;13141;50.414;8.050;2022-09-27T14:24:48;15.20;99.90
25188;DHT22;13141;50.414;8.050;2022-09-27T14:29:50;15.30;99.20
25188;DHT22;13141;50.414;8.050;2022-09-27T14:32:20;15.30;99.50
25188;DHT22;13141;50.414;8.050;2022-09-27T14:35:22;15.30;99.10
25188;DHT22;13141;50.414;8.050;2022-09-27T14:38:09;15.20;99.30
25188;DHT22;13141;50.414;8.050;2022-09-27T14:40:40;15.10;99.20
25188;DHT22;13141;50.414;8.050;2022-09-27T14:43:14;15.10;99.30
25188;DHT22;13141;50.414;8.050;2022-09-27T14:45:41;15.20;99.60
25188;DHT22;13141;50.414;8.050;2022-09-27T14:48:19;15.20;99.40
25188;DHT22;13141;50.414;8.050;2022-09-27T14:50:59;15.30;99.40
25188;DHT22;13141;50.414;8.050;2022-09-27T14:53:30;15.50;99.30
25188;DHT22;13141;50.414;8.050;2022-09-27T14:55:57;15.60;98.90
25188;DHT22;13141;50.414;8.050;2022-09-27T14:58:24;15.70;99.20
25188;DHT22;13141;50.414;8.050;2022-09-27T15:00:54;15.60;99.00
25188;DHT22;13141;50.414;8.050;2022-09-27T15:03:29;15.30;98.50
25188;DHT22;13141;50.414;8.050;2022-09-27T15:05:59;15.20;99.40
25188;DHT22;13141;50.414;8.050;2022-09-27T15:08:27;15.20;99.90
25188;DHT22;13141;50.414;8.050;2022-09-27T15:10:59;15.20;99.90
25188;DHT22;13141;50.414;8.050;2022-09-27T15:13:26;15.10;99.90
25188;DHT22;13141;50.414;8.050;2022-09-27T15:15:53;14.90;99.90
25188;DHT22;13141;50.414;8.050;2022-09-27T15:18:38;14.80;99.90
25188;DHT22;13141;50.414;8.050;2022-09-27T15:21:09;14.80;99.90
25188;DHT22;13141;50.414;8.050;2022-09-27T15:23:43;14.70;99.90
25188;DHT22;13141;50.414;8.050;2022-09-27T15:26:17;14.70;99.90
25188;DHT22;13141;50.414;8.050;2022-09-27T15:28:49;14.60;99.90
25188;DHT22;13141;50.414;8.050;2022-09-27T15:31:17;14.60;99.90
25188;DHT22;13141;50.414;8.050;2022-09-27T15:33:52;14.50;99.90
25188;DHT22;13141;50.414;8.050;2022-09-27T15:39:17;14.60;99.90
25188;DHT22;13141;50.414;8.050;2022-09-27T15:42:08;14.60;99.90
25188;DHT22;13141;50.414;8.050;2022-09-27T15:44:50;14.60;99.90
25188;DHT22;13141;50.414;8.050;2022-09-27T15:52:53;14.60;99.90
25188;DHT22;13141;50.414;8.050;2022-09-27T15:55:24;14.60;99.90
25188;DHT22;13141;50.414;8.050;2022-09-27T15:57:54;14.50;99.90
25188;DHT22;13141;50.414;8.050;2022-09-27T16:00:22;14.30;99.90
25188;DHT22;13141;50.414;8.050;2022-09-27T16:02:48;14.10;99.90
25188;DHT22;13141;50.414;8.050;2022-09-27T16:05:13;13.90;99.90
25188;DHT22;13141;50.414;8.050;2022-09-27T16:07:39;13.70;99.90
25188;DHT22;13141;50.414;8.050;2022-09-27T16:10:23;13.60;99.90
25188;DHT22;13141;50.414;8.050;2022-09-27T16:12:50;13.70;99.90
25188;DHT22;13141;50.414;8.050;2022-09-27T16:15:16;13.50;99.90
25188;DHT22;13141;50.414;8.050;2022-09-27T16:17:42;13.60;99.90
25188;DHT22;13141;50.414;8.050;2022-09-27T16:20:28;13.40;99.90
25188;DHT22;13141;50.414;8.050;2022-09-27T16:22:55;13.30;99.90
25188;DHT22;13141;50.414;8.050;2022-09-27T16:25:21;13.30;99.90
25188;DHT22;13141;50.414;8.050;2022-09-27T16:27:48;13.30;99.90
25188;DHT22;13141;50.414;8.050;2022-09-27T16:30:14;13.30;99.90
25188;DHT22;13141;50.414;8.050;2022-09-27T16:32:44;13.20;99.90
25188;DHT22;13141;50.414;8.050;2022-09-27T16:35:12;13.30;99.90
25188;DHT22;13141;50.414;8.050;2022-09-27T16:37:38;13.30;99.90
25188;DHT22;13141;50.414;8.050;2022-09-27T16:40:06;13.20;99.90
25188;DHT22;13141;50.414;8.050;2022-09-27T16:42:36;13.10;99.90
25188;DHT22;13141;50.414;8.050;2022-09-27T16:45:02;13.20;99.90
25188;DHT22;13141;50.414;8.050;2022-09-27T16:47:28;13.10;99.90
25188;DHT22;13141;50.414;8.050;2022-09-27T16:49:54;13.10;99.90
25188;DHT22;13141;50.414;8.050;2022-09-27T16:52:38;13.10;99.90
25188;DHT22;13141;50.414;8.050;2022-09-27T16:55:07;13.20;99.90
25188;DHT22;13141;50.414;8.050;2022-09-27T16:57:33;13.10;99.90
25188;DHT22;13141;50.414;8.050;2022-09-27T16:59:59;13.10;99.90
25188;DHT22;13141;50.414;8.050;2022-09-27T17:02:26;12.90;99.90
25188;DHT22;13141;50.414;8.050;2022-09-27T17:04:52;12.90;99.90
25188;DHT22;13141;50.414;8.050;2022-09-27T17:07:18;12.80;99.90
25188;DHT22;13141;50.414;8.050;2022-09-27T17:09:44;12.70;99.90
25188;DHT22;13141;50.414;8.050;2022-09-27T17:12:10;12.70;99.90
25188;DHT22;13141;50.414;8.050;2022-09-27T17:14:36;12.70;99.90
25188;DHT22;13141;50.414;8.050;2022-09-27T17:17:01;12.70;99.90
25188;DHT22;13141;50.414;8.050;2022-09-27T17:19:27;12.80;99.90
25188;DHT22;13141;50.414;8.050;2022-09-27T17:21:53;12.80;99.90
25188;DHT22;13141;50.414;8.050;2022-09-27T17:24:21;12.80;99.90
25188;DHT22;13141;50.414;8.050;2022-09-27T17:26:47;12.80;99.90
25188;DHT22;13141;50.414;8.050;2022-09-27T17:29:13;12.80;99.90
25188;DHT22;13141;50.414;8.050;2022-09-27T17:31:40;12.80;99.90
25188;DHT22;13141;50.414;8.050;2022-09-27T17:34:07;12.80;99.90
25188;DHT22;13141;50.414;8.050;2022-09-27T17:36:37;12.70;99.90
25188;DHT22;13141;50.414;8.050;2022-09-27T17:39:04;12.70;99.90
25188;DHT22;13141;50.414;8.050;2022-09-27T17:41:30;12.60;99.90
25188;DHT22;13141;50.414;8.050;2022-09-27T17:43:57;12.60;99.90
25188;DHT22;13141;50.414;8.050;2022-09-27T17:46:34;12.50;99.90
25188;DHT22;13141;50.414;8.050;2022-09-27T17:49:01;12.30;99.90
25188;DHT22;13141;50.414;8.050;2022-09-27T17:51:47;12.10;99.90
25188;DHT22;13141;50.414;8.050;2022-09-27T17:54:13;11.90;99.90
25188;DHT22;13141;50.414;8.050;2022-09-27T17:56:41;11.80;99.90
25188;DHT22;13141;50.414;8.050;2022-09-27T17:59:08;11.80;99.90
25188;DHT22;13141;50.414;8.050;2022-09-27T18:01:34;11.70;99.90
25188;DHT22;13141;50.414;8.050;2022-09-27T18:04:03;11.70;99.90
25188;DHT22;13141;50.414;8.050;2022-09-27T18:06:29;11.70;99.90
25188;DHT22;13141;50.414;8.050;2022-09-27T18:08:55;11.60;99.90
25188;DHT22;13141;50.414;8.050;2022-09-27T18:11:24;11.70;99.90
25188;DHT22;13141;50.414;8.050;2022-09-27T18:13:57;11.60;99.90
25188;DHT22;13141;50.414;8.050;2022-09-27T18:16:25;11.60;99.90
25188;DHT22;13141;50.414;8.050;2022-09-27T18:18:54;11.50;99.90
25188;DHT22;13141;50.414;8.050;2022-09-27T18:21:20;11.50;99.90
25188;DHT22;13141;50.414;8.050;2022-09-27T18:23:51;11.50;99.90
25188;DHT22;13141;50.414;8.050;2022-09-27T18:26:17;11.50;99.90
25188;DHT22;13141;50.414;8.050;2022-09-27T18:28:45;11.50;99.90
25188;DHT22;13141;50.414;8.050;2022-09-27T18:31:13;11.50;99.90